createdAt,value
2022-10-19T00:00:08.156Z,9.95
2022-10-19T00:02:09.451Z,7.32
2022-10-19T00:04:10.956Z,11.40
2022-10-19T00:06:15.371Z,10.27
2022-10-19T00:08:16.684Z,8.95
2022-10-19T00:10:18.052Z,9.90
2022-10-19T00:12:19.383Z,8.90
2022-10-19T00:14:22.393Z,9.38
2022-10-19T00:16:24.344Z,11.75
2022-10-19T00:18:25.667Z,8.82
2022-10-19T00:20:26.972Z,8.30
2022-10-19T00:22:28.312Z,8.05
2022-10-19T00:24:29.590Z,9.95
2022-10-19T00:26:31.221Z,10.25
2022-10-19T00:28:32.573Z,9.77
2022-10-19T00:30:38.378Z,6.78
2022-10-19T00:32:39.750Z,10.13
2022-10-19T00:34:41.159Z,8.98
2022-10-19T00:36:42.613Z,6.75
2022-10-19T00:38:44.143Z,8.25
2022-10-19T00:40:45.765Z,10.80
2022-10-19T00:42:47.060Z,11.25
2022-10-19T00:44:48.340Z,8.70
2022-10-19T00:46:49.650Z,8.85
2022-10-19T00:48:52.719Z,6.75
2022-10-19T00:50:55.972Z,8.02
2022-10-19T00:52:57.361Z,12.48
2022-10-19T00:54:59.096Z,8.57
2022-10-19T00:57:00.452Z,8.52
2022-10-19T00:59:03.964Z,9.50
2022-10-19T01:01:06.096Z,13.32
2022-10-19T01:03:09.042Z,14.98
2022-10-19T01:05:11.346Z,8.98
2022-10-19T01:07:12.788Z,11.15
2022-10-19T01:09:14.101Z,7.00
2022-10-19T01:11:21.221Z,8.65
2022-10-19T01:13:41.345Z,7.80
2022-10-19T01:15:42.842Z,8.40
2022-10-19T01:18:05.076Z,8.10
2022-10-19T01:20:15.415Z,9.57
2022-10-19T01:22:19.554Z,9.80
2022-10-19T01:24:30.045Z,10.45
2022-10-19T01:26:31.321Z,10.77
2022-10-19T01:28:39.139Z,8.82
2022-10-19T01:30:45.181Z,12.05
2022-10-19T01:33:04.887Z,8.98
2022-10-19T01:35:24.782Z,9.90
2022-10-19T01:37:38.744Z,8.37
2022-10-19T01:39:45.264Z,7.63
2022-10-19T01:42:06.880Z,13.73
2022-10-19T01:44:13.248Z,8.98
2022-10-19T01:46:19.438Z,12.00
2022-10-19T01:48:23.493Z,7.60
2022-10-19T01:50:31.585Z,18.50
2022-10-19T01:52:33.828Z,14.18
2022-10-19T01:54:38.431Z,13.82
2022-10-19T01:56:42.165Z,15.40
2022-10-19T01:58:45.156Z,13.70
2022-10-19T02:00:48.474Z,16.92
2022-10-19T02:02:51.011Z,9.90
2022-10-19T02:04:53.665Z,10.90
2022-10-19T02:06:55.409Z,14.35
2022-10-19T02:08:56.742Z,14.55
2022-10-19T02:10:59.124Z,12.95
2022-10-19T02:13:01.503Z,18.00
2022-10-19T02:15:09.468Z,18.30
2022-10-19T02:17:14.733Z,16.23
2022-10-19T02:19:16.863Z,15.45
2022-10-19T02:21:18.351Z,16.85
2022-10-19T02:23:22.096Z,14.77
2022-10-19T02:25:24.233Z,14.50
2022-10-19T02:27:25.825Z,14.95
2022-10-19T02:29:27.427Z,10.23
2022-10-19T02:31:28.804Z,11.43
2022-10-19T02:33:30.400Z,10.27
2022-10-19T02:35:31.725Z,8.88
2022-10-19T02:37:33.226Z,13.10
2022-10-19T02:39:34.616Z,16.42
2022-10-19T02:41:58.305Z,13.98
2022-10-19T02:44:02.416Z,18.80
2022-10-19T02:46:09.631Z,20.70
2022-10-19T02:48:19.492Z,14.77
2022-10-19T02:50:21.391Z,15.90
2022-10-19T02:52:22.714Z,19.88
2022-10-19T02:54:24.219Z,18.38
2022-10-19T02:56:25.611Z,19.35
2022-10-19T02:58:26.930Z,22.30
2022-10-19T03:00:28.204Z,23.25
2022-10-19T03:02:29.595Z,22.45
2022-10-19T03:04:31.018Z,25.17
2022-10-19T03:06:32.305Z,29.35
2022-10-19T03:08:33.728Z,25.80
2022-10-19T03:10:35.037Z,24.88
2022-10-19T03:12:36.365Z,26.38
2022-10-19T03:14:37.657Z,23.95
2022-10-19T03:16:38.928Z,21.45
2022-10-19T03:18:40.246Z,22.60
2022-10-19T03:20:41.549Z,24.63
2022-10-19T03:22:42.881Z,25.65
2022-10-19T03:24:44.227Z,23.08
2022-10-19T03:26:45.587Z,30.30
2022-10-19T03:28:46.942Z,28.92
2022-10-19T03:30:48.336Z,28.90
2022-10-19T03:32:49.656Z,28.48
2022-10-19T03:34:50.972Z,32.35
2022-10-19T03:36:52.360Z,35.22
2022-10-19T03:38:55.049Z,29.13
2022-10-19T03:40:56.626Z,23.98
2022-10-19T03:42:57.917Z,31.40
2022-10-19T03:44:59.207Z,23.92
2022-10-19T03:47:00.524Z,32.08
2022-10-19T03:49:02.253Z,27.95
2022-10-19T03:51:05.480Z,25.60
2022-10-19T03:53:06.757Z,16.58
2022-10-19T03:55:08.374Z,15.93
2022-10-19T03:57:10.337Z,15.40
2022-10-19T03:59:13.277Z,14.30
2022-10-19T04:01:18.482Z,13.10
2022-10-19T04:03:19.833Z,12.70
2022-10-19T04:05:21.106Z,16.92
2022-10-19T04:07:22.369Z,17.40
2022-10-19T04:09:23.931Z,18.70
2022-10-19T04:11:26.340Z,13.77
2022-10-19T04:13:27.886Z,14.95
2022-10-19T04:15:29.285Z,13.80
2022-10-19T04:17:30.651Z,16.85
2022-10-19T04:19:32.049Z,16.27
2022-10-19T04:21:37.455Z,14.75
2022-10-19T04:23:38.978Z,15.18
2022-10-19T04:25:40.267Z,12.57
2022-10-19T04:27:41.604Z,18.40
2022-10-19T04:29:42.942Z,14.70
2022-10-19T04:31:44.696Z,12.82
2022-10-19T04:35:47.309Z,13.45
2022-10-19T04:37:48.595Z,14.70
2022-10-19T04:39:49.870Z,11.32
2022-10-19T04:41:51.227Z,16.05
2022-10-19T04:43:58.784Z,16.45
2022-10-19T04:46:09.878Z,13.35
2022-10-19T04:48:12.714Z,13.27
2022-10-19T04:50:16.232Z,13.93
2022-10-19T04:52:17.520Z,13.52
2022-10-19T04:54:18.857Z,14.85
2022-10-19T04:56:21.667Z,12.40
2022-10-19T04:58:22.988Z,14.95
2022-10-19T05:00:24.301Z,15.23
2022-10-19T05:02:25.627Z,13.00
2022-10-19T05:04:26.912Z,18.13
2022-10-19T05:06:28.509Z,14.60
2022-10-19T05:08:29.808Z,15.45
2022-10-19T05:10:31.188Z,12.23
2022-10-19T05:12:32.574Z,16.15
2022-10-19T05:14:35.864Z,12.55
2022-10-19T05:16:39.300Z,14.82
2022-10-19T05:18:40.820Z,14.35
2022-10-19T05:20:42.135Z,15.82
2022-10-19T05:22:43.507Z,12.95
2022-10-19T05:24:44.795Z,13.80
2022-10-19T05:26:46.101Z,15.13
2022-10-19T05:28:51.442Z,15.77
2022-10-19T05:30:52.821Z,16.95
2022-10-19T05:32:54.112Z,20.25
2022-10-19T05:34:55.396Z,16.13
2022-10-19T05:36:56.847Z,19.27
2022-10-19T05:38:58.236Z,19.73
2022-10-19T05:40:59.553Z,21.73
2022-10-19T05:43:00.877Z,23.60
2022-10-19T05:45:02.257Z,24.05
2022-10-19T05:47:03.583Z,23.58
2022-10-19T05:49:04.908Z,22.10
2022-10-19T05:51:07.204Z,20.70
2022-10-19T05:53:08.550Z,18.52
2022-10-19T05:55:09.887Z,20.52
2022-10-19T05:57:11.256Z,22.80
2022-10-19T05:59:17.230Z,19.05
2022-10-19T06:01:19.321Z,17.70
2022-10-19T06:03:21.899Z,19.20
2022-10-19T06:05:23.285Z,19.40
2022-10-19T06:07:24.688Z,16.23
2022-10-19T06:09:26.040Z,18.08
2022-10-19T06:11:29.605Z,17.27
2022-10-19T06:13:30.917Z,24.90
2022-10-19T06:15:36.429Z,16.42
2022-10-19T06:17:37.769Z,19.52
2022-10-19T06:19:39.103Z,16.80
2022-10-19T06:21:43.256Z,16.88
2022-10-19T06:23:53.971Z,20.80
2022-10-19T06:25:55.272Z,17.67
2022-10-19T06:27:56.624Z,18.27
2022-10-19T06:29:57.957Z,18.88
2022-10-19T06:32:00.411Z,20.38
2022-10-19T06:34:02.109Z,18.38
2022-10-19T06:36:06.400Z,21.23
2022-10-19T06:38:08.167Z,21.25
2022-10-19T06:40:09.812Z,17.63
2022-10-19T06:42:11.167Z,21.13
2022-10-19T06:44:12.472Z,14.40
2022-10-19T06:46:20.386Z,23.45
2022-10-19T06:48:21.856Z,14.63
2022-10-19T06:50:23.197Z,17.42
2022-10-19T06:52:24.539Z,17.45
2022-10-19T06:54:26.031Z,19.35
2022-10-19T06:56:27.453Z,19.05
2022-10-19T06:58:28.847Z,19.02
2022-10-19T07:00:30.420Z,17.55
2022-10-19T07:02:32.437Z,15.90
2022-10-19T07:04:33.789Z,20.02
2022-10-19T07:06:35.093Z,21.58
2022-10-19T07:08:37.315Z,16.75
2022-10-19T07:10:39.024Z,16.58
2022-10-19T07:12:41.233Z,18.63
2022-10-19T07:14:42.516Z,25.23
2022-10-19T07:16:43.808Z,18.95
2022-10-19T07:18:45.483Z,22.00
2022-10-19T07:20:53.688Z,18.48
2022-10-19T07:22:54.967Z,20.60
2022-10-19T07:24:56.274Z,16.17
2022-10-19T07:26:57.614Z,18.27
2022-10-19T07:28:59.400Z,19.13
2022-10-19T07:31:04.876Z,21.73
2022-10-19T07:33:06.828Z,21.83
2022-10-19T07:35:08.234Z,16.08
2022-10-19T07:37:09.624Z,20.88
2022-10-19T07:39:11.648Z,22.35
2022-10-19T07:41:14.398Z,17.77
2022-10-19T07:43:15.719Z,19.98
2022-10-19T07:45:17.240Z,18.42
2022-10-19T07:47:18.604Z,17.45
2022-10-19T07:49:20.681Z,15.77
2022-10-19T07:51:22.782Z,19.70
2022-10-19T07:53:24.256Z,19.92
2022-10-19T07:55:25.761Z,16.92
2022-10-19T07:57:27.221Z,17.25
2022-10-19T07:59:28.567Z,19.17
2022-10-19T08:01:31.255Z,18.58
2022-10-19T08:05:59.285Z,19.27
2022-10-19T08:08:00.605Z,18.23
2022-10-19T08:10:02.022Z,13.82
2022-10-19T08:12:04.245Z,19.10
2022-10-19T08:14:05.587Z,18.25
2022-10-19T08:16:19.843Z,17.65
2022-10-19T08:18:22.946Z,17.65
2022-10-19T08:20:24.267Z,19.98
2022-10-19T08:22:25.613Z,17.52
2022-10-19T08:24:27.242Z,15.73
2022-10-19T08:26:29.437Z,17.67
2022-10-19T08:28:30.732Z,15.88
2022-10-19T08:30:33.996Z,16.65
2022-10-19T08:32:36.104Z,17.30
2022-10-19T08:34:37.591Z,17.67
2022-10-19T08:36:38.914Z,17.52
2022-10-19T08:38:41.455Z,15.75
2022-10-19T08:40:44.665Z,19.23
2022-10-19T08:43:06.484Z,20.73
2022-10-19T08:45:15.334Z,16.17
2022-10-19T08:47:27.871Z,17.33
2022-10-19T08:49:30.661Z,16.73
2022-10-19T08:51:36.822Z,16.65
2022-10-19T08:53:38.119Z,17.42
2022-10-19T08:55:42.151Z,15.70
2022-10-19T08:57:49.055Z,15.77
2022-10-19T08:59:55.637Z,15.75
2022-10-19T09:02:02.547Z,16.27
2022-10-19T09:04:06.893Z,14.40
2022-10-19T09:06:29.193Z,17.98
2022-10-19T09:08:30.730Z,18.13
2022-10-19T09:10:37.088Z,14.52
2022-10-19T09:12:41.113Z,15.15
2022-10-19T09:15:02.672Z,12.40
2022-10-19T09:17:06.615Z,16.42
2022-10-19T09:19:36.987Z,12.50
2022-10-19T09:21:47.375Z,12.60
2022-10-19T09:25:50.928Z,15.90
2022-10-19T09:28:06.460Z,14.90
2022-10-19T09:30:19.213Z,12.55
2022-10-19T09:32:24.349Z,13.65
2022-10-19T09:34:29.756Z,14.07
2022-10-19T09:36:50.094Z,16.10
2022-10-19T09:38:52.078Z,20.17
2022-10-19T09:40:53.433Z,16.80
2022-10-19T09:42:58.374Z,15.32
2022-10-19T09:45:00.726Z,15.73
2022-10-19T09:47:02.271Z,15.85
2022-10-19T09:49:04.481Z,15.05
2022-10-19T09:51:11.554Z,14.77
2022-10-19T09:53:19.585Z,13.95
2022-10-19T09:55:26.141Z,13.00
2022-10-19T09:57:27.583Z,12.25
2022-10-19T09:59:30.675Z,14.63
2022-10-19T10:01:41.967Z,12.55
2022-10-19T10:03:44.258Z,14.40
2022-10-19T10:05:46.452Z,14.82
2022-10-19T10:07:47.991Z,13.77
2022-10-19T10:09:49.311Z,13.82
2022-10-19T10:11:50.969Z,15.55
2022-10-19T10:13:53.356Z,12.40
2022-10-19T10:15:56.563Z,11.90
2022-10-19T10:17:58.156Z,12.57
2022-10-19T10:19:59.474Z,13.43
2022-10-19T10:22:02.923Z,15.32
2022-10-19T10:24:06.608Z,11.48
2022-10-19T10:26:15.747Z,12.90
2022-10-19T10:28:21.545Z,10.85
2022-10-19T10:30:23.102Z,11.57
2022-10-19T10:32:25.013Z,11.43
2022-10-19T10:34:38.554Z,11.60
2022-10-19T10:36:48.916Z,10.63
2022-10-19T10:38:51.991Z,10.30
2022-10-19T10:40:56.241Z,8.95
2022-10-19T10:43:08.743Z,7.72
2022-10-19T10:45:30.410Z,9.77
2022-10-19T10:47:32.118Z,14.73
2022-10-19T10:49:35.659Z,11.35
2022-10-19T10:51:36.997Z,10.60
2022-10-19T10:53:39.820Z,10.88
2022-10-19T10:55:54.851Z,13.00
2022-10-19T10:58:16.430Z,9.50
2022-10-19T11:00:19.573Z,10.10
2022-10-19T11:02:36.737Z,8.73
2022-10-19T11:04:47.410Z,13.73
2022-10-19T11:07:00.888Z,11.95
2022-10-19T11:09:07.180Z,9.35
2022-10-19T11:11:14.005Z,8.93
2022-10-19T11:13:15.323Z,8.45
2022-10-19T11:15:16.961Z,9.95
2022-10-19T11:17:22.413Z,10.73
2022-10-19T11:19:33.257Z,9.15
2022-10-19T11:21:37.932Z,13.57
2022-10-19T11:23:57.982Z,10.70
2022-10-19T11:26:17.887Z,8.35
2022-10-19T11:28:22.280Z,11.10
2022-10-19T11:30:24.120Z,8.95
2022-10-19T11:32:25.464Z,9.55
2022-10-19T11:34:32.429Z,11.90
2022-10-19T11:36:46.195Z,10.65
2022-10-19T11:38:50.527Z,12.32
2022-10-19T11:41:16.759Z,9.90
2022-10-19T11:43:37.560Z,12.85
2022-10-19T11:45:48.400Z,9.90
2022-10-19T11:47:59.325Z,9.60
2022-10-19T11:50:00.698Z,11.85
2022-10-19T11:52:08.844Z,9.32
2022-10-19T11:54:16.075Z,10.55
2022-10-19T11:56:58.045Z,9.68
2022-10-19T11:59:03.659Z,13.50
2022-10-19T12:01:05.117Z,12.07
2022-10-19T12:03:06.464Z,11.07
2022-10-19T12:05:10.645Z,7.95
2022-10-19T12:07:32.301Z,7.72
2022-10-19T12:09:33.673Z,8.10
2022-10-19T12:11:37.880Z,12.07
2022-10-19T12:13:44.670Z,12.35
2022-10-19T12:15:50.775Z,8.77
2022-10-19T12:17:53.879Z,14.02
2022-10-19T12:19:57.890Z,8.45
2022-10-19T12:22:00.544Z,9.23
2022-10-19T12:24:03.967Z,9.88
2022-10-19T12:26:10.194Z,8.07
2022-10-19T12:28:18.803Z,9.77
2022-10-19T12:30:21.616Z,8.70
2022-10-19T12:32:23.864Z,8.60
2022-10-19T12:34:30.742Z,9.27
2022-10-19T12:36:39.323Z,8.85
2022-10-19T12:39:01.516Z,8.10
2022-10-19T12:41:06.008Z,7.15
2022-10-19T12:43:11.243Z,8.60
2022-10-19T12:45:18.872Z,8.20
2022-10-19T12:47:21.607Z,8.02
2022-10-19T12:49:28.715Z,11.07
2022-10-19T12:51:43.587Z,8.27
2022-10-19T12:53:49.160Z,7.18
2022-10-19T12:56:04.739Z,10.05
2022-10-19T12:58:19.540Z,7.53
2022-10-19T13:00:23.501Z,7.53
2022-10-19T13:02:27.006Z,8.68
2022-10-19T13:04:32.980Z,7.97
2022-10-19T13:06:36.083Z,10.48
2022-10-19T13:08:42.189Z,9.63
2022-10-19T13:11:02.378Z,10.40
2022-10-19T13:13:03.822Z,13.82
2022-10-19T13:15:05.779Z,12.45
2022-10-19T13:17:07.873Z,8.90
2022-10-19T13:19:12.136Z,10.70
2022-10-19T13:21:33.393Z,8.10
2022-10-19T13:23:37.212Z,8.57
2022-10-19T13:25:39.334Z,9.75
2022-10-19T13:27:40.694Z,9.48
2022-10-19T13:29:44.655Z,7.15
2022-10-19T13:31:46.030Z,8.85
2022-10-19T13:33:48.476Z,10.13
2022-10-19T13:36:05.261Z,8.27
2022-10-19T13:38:09.484Z,9.05
2022-10-19T13:40:23.751Z,9.70
2022-10-19T13:42:26.891Z,8.82
2022-10-19T13:44:30.902Z,9.65
2022-10-19T13:46:32.215Z,10.05
2022-10-19T13:48:42.583Z,12.90
2022-10-19T13:50:49.577Z,10.55
2022-10-19T13:53:03.290Z,11.95
2022-10-19T13:55:24.881Z,13.23
2022-10-19T13:57:46.140Z,12.23
2022-10-19T13:59:49.000Z,15.48
2022-10-19T14:01:59.711Z,13.40
2022-10-19T14:04:12.212Z,12.43
2022-10-19T14:06:13.684Z,14.60
2022-10-19T14:08:27.119Z,12.93
2022-10-19T14:10:33.080Z,12.15
2022-10-19T14:12:41.411Z,12.18
2022-10-19T14:14:44.144Z,14.02
2022-10-19T14:16:59.625Z,12.55
2022-10-19T14:19:12.352Z,11.88
2022-10-19T14:21:13.683Z,12.90
2022-10-19T14:23:25.410Z,13.32
2022-10-19T14:25:27.757Z,13.70
2022-10-19T14:27:29.861Z,12.43
2022-10-19T14:29:33.625Z,12.45
2022-10-19T14:31:36.315Z,13.38
2022-10-19T14:33:41.649Z,12.52
2022-10-19T14:35:46.005Z,12.63
2022-10-19T14:37:47.452Z,13.52
2022-10-19T14:39:58.570Z,13.07
2022-10-19T14:42:04.177Z,15.57
2022-10-19T14:44:40.943Z,15.75
2022-10-19T14:46:47.171Z,13.20
2022-10-19T14:48:49.814Z,14.57
2022-10-19T14:50:52.718Z,15.88
2022-10-19T14:52:56.830Z,13.45
2022-10-19T14:55:00.859Z,15.05
2022-10-19T14:57:04.898Z,14.30
2022-10-19T14:59:15.144Z,12.93
2022-10-19T15:01:18.277Z,14.15
2022-10-19T15:03:24.172Z,13.77
2022-10-19T15:05:28.017Z,14.57
2022-10-19T15:07:37.224Z,14.40
2022-10-19T15:09:48.234Z,14.57
2022-10-19T15:11:50.632Z,15.65
2022-10-19T15:13:56.735Z,15.45
2022-10-19T15:15:58.118Z,15.85
2022-10-19T15:17:59.659Z,12.57
2022-10-19T15:20:01.587Z,15.90
2022-10-19T15:22:11.064Z,16.90
2022-10-19T15:24:21.333Z,16.23
2022-10-19T15:26:25.729Z,12.60
2022-10-19T15:28:40.693Z,14.88
2022-10-19T15:30:43.244Z,17.30
2022-10-19T15:32:45.516Z,14.82
2022-10-19T15:34:46.954Z,15.55
2022-10-19T15:36:58.994Z,15.02
2022-10-19T15:39:11.504Z,15.18
2022-10-19T15:41:25.704Z,13.90
2022-10-19T15:43:36.028Z,17.23
2022-10-19T15:45:38.123Z,19.50
2022-10-19T15:47:40.855Z,15.38
2022-10-19T15:49:42.153Z,17.55
2022-10-19T15:51:44.630Z,15.73
2022-10-19T15:53:45.914Z,13.35
2022-10-19T15:55:47.336Z,14.98
2022-10-19T15:57:57.955Z,13.23
2022-10-19T16:02:00.630Z,16.00
2022-10-19T16:04:02.032Z,17.45
2022-10-19T16:06:03.398Z,17.88
2022-10-19T16:08:08.899Z,13.43
2022-10-19T16:10:20.416Z,13.40
2022-10-19T16:12:22.327Z,15.30
2022-10-19T16:14:26.482Z,15.02
2022-10-19T16:16:29.611Z,15.68
2022-10-19T16:18:31.045Z,17.30
2022-10-19T16:20:32.473Z,15.05
2022-10-19T16:22:33.851Z,14.30
2022-10-19T16:24:35.139Z,14.73
2022-10-19T16:26:36.454Z,15.65
2022-10-19T16:28:37.800Z,11.90
2022-10-19T16:30:39.169Z,21.13
2022-10-19T16:34:41.821Z,15.68
2022-10-19T16:36:43.135Z,16.10
2022-10-19T16:38:44.429Z,13.40
2022-10-19T16:40:45.857Z,18.10
2022-10-19T16:42:47.216Z,13.07
2022-10-19T16:44:48.505Z,17.30
2022-10-19T16:46:49.870Z,15.02
2022-10-19T16:48:51.698Z,18.05
2022-10-19T16:51:05.241Z,17.75
2022-10-19T16:53:11.094Z,15.90
2022-10-19T16:55:12.709Z,16.25
2022-10-19T16:57:14.016Z,13.75
2022-10-19T16:59:16.815Z,15.98
2022-10-19T17:01:19.427Z,15.15
2022-10-19T17:03:20.938Z,15.80
2022-10-19T17:05:22.523Z,17.27
2022-10-19T17:07:23.929Z,15.00
2022-10-19T17:09:42.233Z,15.00
2022-10-19T17:11:44.298Z,17.58
2022-10-19T17:13:46.737Z,16.92
2022-10-19T17:15:48.236Z,15.27
2022-10-19T17:17:49.707Z,15.60
2022-10-19T17:19:50.975Z,15.85
2022-10-19T17:21:54.669Z,22.75
2022-10-19T17:23:57.513Z,17.85
2022-10-19T17:25:59.019Z,22.02
2022-10-19T17:28:00.337Z,28.15
2022-10-19T17:30:01.686Z,17.65
2022-10-19T17:32:03.023Z,19.23
2022-10-19T17:34:04.781Z,21.70
2022-10-19T17:36:06.419Z,17.80
2022-10-19T17:38:07.758Z,18.05
2022-10-19T17:40:09.256Z,17.85
2022-10-19T17:42:10.520Z,18.73
2022-10-19T17:44:12.015Z,19.33
2022-10-19T17:46:15.920Z,19.45
2022-10-19T17:48:17.213Z,21.73
2022-10-19T17:50:18.524Z,17.70
2022-10-19T17:52:19.814Z,17.60
2022-10-19T17:54:21.271Z,16.67
2022-10-19T17:56:22.713Z,19.17
2022-10-19T17:58:24.146Z,21.52
2022-10-19T18:00:25.567Z,19.73
2022-10-19T18:02:26.891Z,19.38
2022-10-19T18:04:28.294Z,18.55
2022-10-19T18:06:33.850Z,19.40
2022-10-19T18:08:39.253Z,20.55
2022-10-19T18:10:40.602Z,19.50
2022-10-19T18:12:41.968Z,21.50
2022-10-19T18:14:44.015Z,28.55
2022-10-19T18:16:46.395Z,19.65
2022-10-19T18:18:49.211Z,24.25
2022-10-19T18:20:50.721Z,21.55
2022-10-19T18:22:52.004Z,21.13
2022-10-19T18:24:53.428Z,21.25
2022-10-19T18:26:54.767Z,15.50
2022-10-19T18:28:57.022Z,13.60
2022-10-19T18:31:05.545Z,12.88
2022-10-19T18:33:06.923Z,16.98
2022-10-19T18:35:10.214Z,14.88
2022-10-19T18:37:11.595Z,13.70
2022-10-19T18:39:13.703Z,12.90
2022-10-19T18:41:15.078Z,13.65
2022-10-19T18:43:16.410Z,14.07
2022-10-19T18:45:17.741Z,10.77
2022-10-19T18:47:19.116Z,15.98
2022-10-19T18:49:20.483Z,13.07
2022-10-19T18:51:22.909Z,12.07
2022-10-19T18:53:25.360Z,11.75
2022-10-19T18:55:26.675Z,9.77
2022-10-19T18:57:31.634Z,11.02
2022-10-19T18:59:33.268Z,9.88
2022-10-19T19:01:34.656Z,11.55
2022-10-19T19:03:37.302Z,11.38
2022-10-19T19:05:51.142Z,10.65
2022-10-19T19:07:52.508Z,10.57
2022-10-19T19:09:53.804Z,12.35
2022-10-19T19:11:57.958Z,9.68
2022-10-19T19:14:00.481Z,10.60
2022-10-19T19:16:01.763Z,12.30
2022-10-19T19:18:03.278Z,10.98
2022-10-19T19:20:05.065Z,11.43
2022-10-19T19:22:08.664Z,10.65
2022-10-19T19:24:11.165Z,10.80
2022-10-19T19:26:12.959Z,9.85
2022-10-19T19:28:14.321Z,12.38
2022-10-19T19:30:15.635Z,11.32
2022-10-19T19:32:17.051Z,12.70
2022-10-19T19:34:18.564Z,11.13
2022-10-19T19:36:19.907Z,11.60
2022-10-19T19:38:21.225Z,9.88
2022-10-19T19:40:22.641Z,12.18
2022-10-19T19:42:27.728Z,10.63
2022-10-19T19:44:29.738Z,13.13
2022-10-19T19:46:31.966Z,11.95
2022-10-19T19:48:33.301Z,9.32
2022-10-19T19:50:37.237Z,9.25
2022-10-19T19:52:40.536Z,10.27
2022-10-19T19:54:41.965Z,10.43
2022-10-19T19:56:43.332Z,9.00
2022-10-19T19:58:45.248Z,9.60
2022-10-19T20:00:46.724Z,14.57
2022-10-19T20:02:54.567Z,7.68
2022-10-19T20:04:55.878Z,11.20
2022-10-19T20:06:57.229Z,8.55
2022-10-19T20:08:58.642Z,10.63
2022-10-19T20:11:03.731Z,7.93
2022-10-19T20:15:06.538Z,10.05
2022-10-19T20:17:07.817Z,7.75
2022-10-19T20:19:10.372Z,7.32
2022-10-19T20:21:11.735Z,7.47
2022-10-19T20:23:13.066Z,8.90
2022-10-19T20:25:14.494Z,10.05
2022-10-19T20:27:15.788Z,9.52
2022-10-19T20:29:17.125Z,7.00
2022-10-19T20:31:18.943Z,8.80
2022-10-19T20:33:20.439Z,11.10
2022-10-19T20:35:21.756Z,8.90
2022-10-19T20:37:23.363Z,6.47
2022-10-19T20:39:24.709Z,8.60
2022-10-19T20:41:27.501Z,10.05
2022-10-19T20:43:28.840Z,8.57
2022-10-19T20:45:30.183Z,7.32
2022-10-19T20:47:31.459Z,9.35
2022-10-19T20:49:32.766Z,7.75
2022-10-19T20:51:36.880Z,8.98
2022-10-19T20:53:38.444Z,9.70
2022-10-19T20:55:39.899Z,9.68
2022-10-19T20:57:41.277Z,8.10
2022-10-19T20:59:43.897Z,10.52
2022-10-19T21:01:45.802Z,8.63
2022-10-19T21:03:48.257Z,8.95
2022-10-19T21:05:49.620Z,9.75
2022-10-19T21:07:50.919Z,8.70
2022-10-19T21:09:53.877Z,8.07
2022-10-19T21:11:55.325Z,10.23
2022-10-19T21:13:57.906Z,7.78
2022-10-19T21:16:07.149Z,10.02
2022-10-19T21:18:08.531Z,10.73
2022-10-19T21:20:10.041Z,10.48
2022-10-19T21:22:11.526Z,8.70
2022-10-19T21:24:16.941Z,10.18
2022-10-19T21:26:18.240Z,8.25
2022-10-19T21:28:19.555Z,9.15
2022-10-19T21:30:21.166Z,9.10
2022-10-19T21:32:22.721Z,10.23
2022-10-19T21:34:25.537Z,11.10
2022-10-19T21:36:26.917Z,11.32
2022-10-19T21:38:28.652Z,8.75
2022-10-19T21:40:29.964Z,12.32
2022-10-19T21:42:31.315Z,9.73
2022-10-19T21:44:32.589Z,10.63
2022-10-19T21:46:33.909Z,8.90
2022-10-19T21:48:35.353Z,8.63
2022-10-19T21:50:36.877Z,8.77
2022-10-19T21:52:38.202Z,8.00
2022-10-19T21:54:39.527Z,7.63
2022-10-19T21:56:40.992Z,12.65
2022-10-19T21:59:00.081Z,9.30
2022-10-19T22:01:07.741Z,11.43
2022-10-19T22:03:09.558Z,9.25
2022-10-19T22:05:10.917Z,10.88
2022-10-19T22:07:12.214Z,13.10
2022-10-19T22:09:18.025Z,10.75
2022-10-19T22:11:19.628Z,11.65
2022-10-19T22:13:20.957Z,11.30
2022-10-19T22:15:22.271Z,9.77
2022-10-19T22:17:23.605Z,12.68
2022-10-19T22:19:26.194Z,8.55
2022-10-19T22:21:31.176Z,9.52
2022-10-19T22:23:32.516Z,9.98
2022-10-19T22:25:34.889Z,9.80
2022-10-19T22:27:36.191Z,11.35
2022-10-19T22:29:37.660Z,8.73
2022-10-19T22:31:39.453Z,11.38
2022-10-19T22:33:40.794Z,10.20
2022-10-19T22:35:42.050Z,11.02
2022-10-19T22:37:43.433Z,10.32
2022-10-19T22:39:44.722Z,11.68
2022-10-19T22:41:46.005Z,10.25
2022-10-19T22:43:47.328Z,12.70
2022-10-19T22:45:49.642Z,11.00
2022-10-19T22:47:50.951Z,11.82
2022-10-19T22:49:52.344Z,11.70
2022-10-19T22:51:53.669Z,10.40
2022-10-19T22:53:55.094Z,11.60
2022-10-19T22:55:56.470Z,14.48
2022-10-19T22:57:57.939Z,10.13
2022-10-19T22:59:59.322Z,11.45
2022-10-19T23:02:00.729Z,10.13
2022-10-19T23:04:02.338Z,9.98
2022-10-19T23:06:03.721Z,12.15
2022-10-19T23:08:05.229Z,10.00
2022-10-19T23:10:06.856Z,12.75
2022-10-19T23:12:08.320Z,10.07
2022-10-19T23:14:09.624Z,13.02
2022-10-19T23:16:11.240Z,10.10
2022-10-19T23:18:12.950Z,10.60
2022-10-19T23:20:14.478Z,12.13
2022-10-19T23:22:15.812Z,12.75
2022-10-19T23:24:17.097Z,12.98
2022-10-19T23:26:19.361Z,11.65
2022-10-19T23:28:20.700Z,11.82
2022-10-19T23:30:22.044Z,13.27
2022-10-19T23:32:23.439Z,14.02
2022-10-19T23:34:24.988Z,11.70
2022-10-19T23:36:27.688Z,10.98
2022-10-19T23:38:28.984Z,11.30
2022-10-19T23:40:30.372Z,12.20
2022-10-19T23:42:31.688Z,13.55
2022-10-19T23:44:33.036Z,13.27
2022-10-19T23:46:34.424Z,10.40
2022-10-19T23:48:35.830Z,13.45
2022-10-19T23:50:37.213Z,10.93
2022-10-19T23:52:38.561Z,11.95
2022-10-19T23:54:39.957Z,14.07
2022-10-19T23:56:41.362Z,12.00
2022-10-19T23:58:43.127Z,11.35
